Time;durP1;ratioP1;P1;durP2;ratioP2;P2;SDS_P1;SDS_P2;PMS_P1;PMS_P2;Temp;Humidity;BMP_temperature;BMP_pressure;BME280_temperature;BME280_humidity;BME280_pressure;Samples;Min_cycle;Max_cycle;Signal;HPM_P1;HPM_P2
2021/05/25 00:01:30;;;;;;;2.80;2.60;;;12.80;99.90;;;;;;4938534;29;20385;-74
2021/05/25 00:03:56;;;;;;;4.18;2.75;;;12.80;99.90;;;;;;4940262;28;20122;-74
2021/05/25 00:06:22;;;;;;;2.72;2.45;;;12.80;99.90;;;;;;4957721;29;20051;-74
2021/05/25 00:08:47;;;;;;;2.63;2.42;;;12.80;99.90;;;;;;4957733;29;20035;-74
2021/05/25 00:11:13;;;;;;;4.03;2.63;;;12.80;99.90;;;;;;4956991;29;20046;-74
2021/05/25 00:13:39;;;;;;;2.83;2.53;;;12.80;99.90;;;;;;4956433;29;20075;-74
2021/05/25 00:16:05;;;;;;;2.70;2.50;;;12.80;99.90;;;;;;4956424;29;20031;-74
2021/05/25 00:18:31;;;;;;;2.95;2.65;;;12.70;99.90;;;;;;4956307;29;20027;-74
2021/05/25 00:20:56;;;;;;;2.30;2.20;;;12.70;99.90;;;;;;4956754;29;20038;-74
2021/05/25 00:23:22;;;;;;;3.22;2.53;;;12.60;99.90;;;;;;4955795;29;20027;-74
2021/05/25 00:25:48;;;;;;;3.03;2.72;;;12.60;99.90;;;;;;4938352;29;20046;-74
2021/05/25 00:28:14;;;;;;;3.50;3.10;;;12.60;99.90;;;;;;4955270;29;20059;-74
2021/05/25 00:30:39;;;;;;;2.90;2.60;;;12.60;99.90;;;;;;4955562;29;20050;-74
2021/05/25 00:33:05;;;;;;;3.30;3.00;;;12.60;99.90;;;;;;4956461;29;20070;-74
2021/05/25 00:35:35;;;;;;;2.78;2.55;;;12.50;99.90;;;;;;4956003;28;20103;-74
2021/05/25 00:38:02;;;;;;;3.20;2.90;;;12.60;99.90;;;;;;4956375;29;20035;-74
2021/05/25 00:40:28;;;;;;;3.20;2.90;;;12.50;99.90;;;;;;4956496;29;20039;-74
2021/05/25 00:42:54;;;;;;;3.00;2.80;;;12.50;99.90;;;;;;4955841;29;20038;-74
2021/05/25 00:45:19;;;;;;;3.35;3.05;;;12.50;99.90;;;;;;4954470;29;20389;-74
2021/05/25 00:47:45;;;;;;;3.15;2.95;;;12.50;99.90;;;;;;4955902;29;20042;-74
2021/05/25 00:50:20;;;;;;;2.97;2.70;;;12.50;99.90;;;;;;4955373;29;20065;-74
2021/05/25 00:52:51;;;;;;;2.90;2.60;;;12.50;99.90;;;;;;4955782;29;20441;-74
2021/05/25 00:55:26;;;;;;;3.25;2.60;;;12.40;99.90;;;;;;4955475;29;20023;-74
2021/05/25 00:57:53;;;;;;;2.35;2.25;;;12.40;99.90;;;;;;4935040;29;20031;-74
2021/05/25 01:00:27;;;;;;;3.08;2.88;;;12.40;99.90;;;;;;4936544;29;20023;-74
2021/05/25 01:02:54;;;;;;;5.95;2.63;;;12.40;99.90;;;;;;4934954;29;20039;-74
2021/05/25 01:05:19;;;;;;;2.70;2.50;;;12.30;99.90;;;;;;4967335;28;20026;-74
2021/05/25 01:07:45;;;;;;;3.22;2.92;;;12.30;99.90;;;;;;4975069;28;20123;-74
2021/05/25 01:10:14;;;;;;;3.10;2.85;;;12.20;99.90;;;;;;4948311;29;20031;-74
2021/05/25 01:12:55;;;;;;;2.88;2.67;;;12.30;99.90;;;;;;4955732;29;20426;-74
2021/05/25 01:15:21;;;;;;;2.88;2.67;;;12.20;99.90;;;;;;4956696;29;20058;-74
2021/05/25 01:17:47;;;;;;;4.38;2.90;;;12.20;99.90;;;;;;4957130;29;20019;-74
2021/05/25 01:20:15;;;;;;;3.33;3.03;;;12.20;99.90;;;;;;4955304;29;20397;-74
2021/05/25 01:22:41;;;;;;;2.92;2.72;;;12.20;99.90;;;;;;4956192;29;20055;-74
2021/05/25 01:25:14;;;;;;;3.28;3.00;;;12.10;99.90;;;;;;4956036;29;20098;-74
2021/05/25 01:27:40;;;;;;;4.25;3.40;;;12.10;99.90;;;;;;4956295;29;20041;-75
2021/05/25 01:30:08;;;;;;;3.38;3.08;;;12.10;99.90;;;;;;4938967;29;20023;-74
2021/05/25 01:32:35;;;;;;;5.80;3.75;;;12.00;99.90;;;;;;4956229;29;20488;-74
2021/05/25 01:35:00;;;;;;;4.00;3.60;;;12.00;99.90;;;;;;4954291;28;20465;-74
2021/05/25 01:37:26;;;;;;;4.55;3.75;;;12.00;99.90;;;;;;4956159;29;20027;-74
2021/05/25 01:39:54;;;;;;;5.80;3.83;;;11.90;99.90;;;;;;4956095;29;20027;-74
2021/05/25 01:42:21;;;;;;;3.97;3.53;;;11.90;99.90;;;;;;4955193;29;20039;-75
2021/05/25 01:44:46;;;;;;;4.03;3.63;;;11.90;99.90;;;;;;4955777;29;20019;-74
2021/05/25 01:47:15;;;;;;;4.95;4.40;;;11.80;99.90;;;;;;4955636;29;20031;-74
2021/05/25 01:49:41;;;;;;;4.80;4.03;;;11.80;99.90;;;;;;4955834;29;20533;-74
2021/05/25 01:52:06;;;;;;;5.20;3.58;;;11.80;99.90;;;;;;4955238;29;20027;-74
2021/05/25 01:54:32;;;;;;;3.47;3.17;;;11.80;99.90;;;;;;4955832;29;20060;-74
2021/05/25 01:56:58;;;;;;;7.28;3.65;;;11.70;99.90;;;;;;4954490;29;20041;-74
2021/05/25 01:59:23;;;;;;;3.78;3.47;;;11.80;99.90;;;;;;4955915;29;20039;-74
2021/05/25 02:01:49;;;;;;;4.05;3.13;;;11.70;99.90;;;;;;4955509;28;20029;-74
2021/05/25 02:04:14;;;;;;;3.53;3.20;;;11.80;99.90;;;;;;4955530;28;20110;-74
2021/05/25 02:06:40;;;;;;;4.40;3.17;;;11.70;99.90;;;;;;4955237;29;20124;-74
2021/05/25 02:09:06;;;;;;;3.75;3.13;;;11.70;99.90;;;;;;4938226;29;20038;-74
2021/05/25 02:11:31;;;;;;;3.03;2.83;;;11.80;99.90;;;;;;4955992;29;20516;-75
2021/05/25 02:13:57;;;;;;;3.50;3.20;;;11.80;99.90;;;;;;4954162;29;20084;-74
2021/05/25 02:16:23;;;;;;;3.65;3.10;;;11.90;99.90;;;;;;4953558;28;20031;-74
2021/05/25 02:18:49;;;;;;;3.28;2.88;;;11.90;99.90;;;;;;4953964;29;20420;-74
2021/05/25 02:21:17;;;;;;;3.10;2.80;;;12.00;99.90;;;;;;4936667;29;20078;-74
2021/05/25 02:23:43;;;;;;;3.15;2.83;;;12.10;99.90;;;;;;4954008;29;20027;-74
2021/05/25 02:26:09;;;;;;;3.97;2.80;;;12.10;99.90;;;;;;4954173;29;20438;-73
2021/05/25 02:28:37;;;;;;;2.83;2.63;;;12.20;99.90;;;;;;4953599;29;20065;-73
2021/05/25 02:31:03;;;;;;;2.90;2.70;;;12.20;99.90;;;;;;4954020;29;20034;-74
2021/05/25 02:33:30;;;;;;;2.90;2.70;;;12.30;99.90;;;;;;4953713;29;20023;-73
2021/05/25 02:35:58;;;;;;;4.30;2.70;;;12.30;99.90;;;;;;4954249;29;20023;-73
2021/05/25 02:38:26;;;;;;;3.42;2.75;;;12.40;99.90;;;;;;4954205;29;20024;-74
2021/05/25 02:40:52;;;;;;;2.63;2.42;;;12.50;99.90;;;;;;4952400;29;20385;-73
2021/05/25 02:43:23;;;;;;;2.88;2.67;;;12.50;99.90;;;;;;4936517;29;20170;-74
2021/05/25 02:45:49;;;;;;;2.65;2.35;;;12.60;99.90;;;;;;4957758;28;20030;-73
2021/05/25 02:48:16;;;;;;;2.40;2.20;;;12.70;99.90;;;;;;4958464;28;20035;-73
2021/05/25 02:50:42;;;;;;;2.70;2.50;;;12.70;99.90;;;;;;4953000;29;20052;-73
2021/05/25 02:53:08;;;;;;;9.23;6.30;;;12.80;99.90;;;;;;4954587;29;20111;-78
2021/05/25 02:55:35;;;;;;;39.20;25.50;;;12.80;99.90;;;;;;4937683;29;20023;-73
2021/05/25 02:58:03;;;;;;;8.25;5.82;;;12.90;99.90;;;;;;4953731;29;20024;-74
2021/05/25 03:00:35;;;;;;;6.20;4.03;;;13.00;99.90;;;;;;4936407;29;20035;-73
2021/05/25 03:03:01;;;;;;;3.42;3.08;;;13.00;99.90;;;;;;4935879;28;20034;-74
2021/05/25 03:05:27;;;;;;;3.05;2.58;;;13.10;99.90;;;;;;4953671;29;20035;-74
2021/05/25 03:07:55;;;;;;;3.55;2.70;;;13.10;99.90;;;;;;4953816;29;20051;-74
2021/05/25 03:10:26;;;;;;;2.85;2.65;;;13.10;99.90;;;;;;4953778;29;20039;-74
2021/05/25 03:12:52;;;;;;;2.67;2.47;;;13.10;99.90;;;;;;4953685;28;20047;-74
2021/05/25 03:15:22;;;;;;;2.90;2.60;;;13.10;99.90;;;;;;4955037;29;20485;-74
2021/05/25 03:17:48;;;;;;;3.00;2.70;;;13.10;99.90;;;;;;4954744;29;20481;-74
2021/05/25 03:20:15;;;;;;;2.75;2.55;;;13.10;99.90;;;;;;4954955;29;20063;-73
2021/05/25 03:22:40;;;;;;;3.30;3.00;;;13.10;99.90;;;;;;4955523;29;20019;-74
2021/05/25 03:25:08;;;;;;;3.13;2.83;;;13.00;99.90;;;;;;4954924;29;20473;-74
2021/05/25 03:27:34;;;;;;;3.42;3.10;;;13.10;99.90;;;;;;4956514;28;20035;-73
2021/05/25 03:30:00;;;;;;;3.10;2.80;;;13.10;99.90;;;;;;4958564;29;20058;-74
2021/05/25 03:32:26;;;;;;;3.20;2.88;;;13.10;99.90;;;;;;4958004;29;20507;-73
2021/05/25 03:34:52;;;;;;;2.50;2.30;;;13.10;99.90;;;;;;4957754;29;20034;-73
2021/05/25 03:37:17;;;;;;;3.28;3.05;;;13.10;99.90;;;;;;4958667;29;20047;-73
2021/05/25 03:39:43;;;;;;;3.03;2.83;;;13.20;99.90;;;;;;4958180;29;20035;-74
2021/05/25 03:42:09;;;;;;;3.38;3.08;;;13.20;99.90;;;;;;4940821;29;20487;-76
2021/05/25 03:44:34;;;;;;;3.03;2.80;;;13.30;99.90;;;;;;4941284;29;20038;-74
2021/05/25 03:47:00;;;;;;;5.22;3.33;;;13.30;99.90;;;;;;4957969;29;20780;-75
2021/05/25 03:49:26;;;;;;;3.33;2.70;;;13.30;99.90;;;;;;4958205;29;20410;-74
2021/05/25 03:51:51;;;;;;;3.60;3.30;;;13.30;99.90;;;;;;4958411;29;20481;-74
2021/05/25 03:54:29;;;;;;;4.38;3.50;;;13.40;99.90;;;;;;4957894;29;20039;-73
2021/05/25 03:56:58;;;;;;;4.22;3.83;;;13.40;99.90;;;;;;4939024;29;20028;-73
2021/05/25 03:59:24;;;;;;;3.75;3.45;;;13.40;99.90;;;;;;4939046;29;20031;-74
2021/05/25 04:01:51;;;;;;;3.72;3.33;;;13.50;99.90;;;;;;4957107;29;20031;-73
2021/05/25 04:04:17;;;;;;;3.60;3.30;;;13.50;99.90;;;;;;4957606;29;20060;-73
2021/05/25 04:06:43;;;;;;;3.60;3.30;;;13.50;99.90;;;;;;4957929;29;20031;-73
2021/05/25 04:09:09;;;;;;;3.65;3.35;;;13.60;99.90;;;;;;4950387;29;20074;-74
2021/05/25 04:11:35;;;;;;;3.53;3.15;;;13.60;99.90;;;;;;4957225;29;20118;-74
2021/05/25 04:14:03;;;;;;;4.10;2.90;;;13.60;99.90;;;;;;4955270;29;20043;-74
2021/05/25 04:16:29;;;;;;;3.55;2.90;;;13.70;99.90;;;;;;4956468;29;20426;-74
2021/05/25 04:18:55;;;;;;;3.03;2.60;;;13.80;99.90;;;;;;4956884;29;20102;-81
2021/05/25 04:21:20;;;;;;;3.00;2.70;;;13.80;99.90;;;;;;4956637;29;20120;-75
2021/05/25 04:23:46;;;;;;;3.13;2.47;;;13.90;99.90;;;;;;4931998;29;20516;-73
2021/05/25 04:26:12;;;;;;;2.60;2.40;;;14.00;99.90;;;;;;4957651;29;20126;-78
2021/05/25 04:28:38;;;;;;;2.80;2.60;;;14.00;99.90;;;;;;4957377;29;20031;-80
2021/05/25 04:31:04;;;;;;;3.35;3.05;;;14.10;99.90;;;;;;4957572;29;20390;-81
2021/05/25 04:33:30;;;;;;;4.40;3.63;;;14.10;99.90;;;;;;4957113;29;20035;-81
2021/05/25 04:35:55;;;;;;;3.88;2.92;;;14.20;99.90;;;;;;4940053;29;20023;-81
2021/05/25 04:38:21;;;;;;;2.90;2.70;;;14.20;99.90;;;;;;4956863;28;20063;-82
2021/05/25 04:40:47;;;;;;;2.55;2.35;;;14.20;99.90;;;;;;4957000;29;20019;-80
2021/05/25 04:43:13;;;;;;;3.10;2.50;;;14.30;99.90;;;;;;4939967;29;20042;-79
2021/05/25 04:45:39;;;;;;;2.63;2.42;;;14.30;99.90;;;;;;4957335;29;20023;-79
2021/05/25 04:48:09;;;;;;;2.17;2.05;;;14.30;99.90;;;;;;4957133;29;20478;-80
2021/05/25 04:50:36;;;;;;;2.75;2.10;;;14.40;99.90;;;;;;4956987;29;20031;-79
2021/05/25 04:53:02;;;;;;;2.30;2.10;;;14.40;99.90;;;;;;4956660;29;20040;-78
2021/05/25 04:55:28;;;;;;;2.85;2.58;;;14.50;99.90;;;;;;4940188;29;20029;-81
2021/05/25 04:57:54;;;;;;;2.30;2.20;;;14.60;99.90;;;;;;4955846;29;20106;-79
2021/05/25 05:00:26;;;;;;;4.13;2.10;;;14.60;99.90;;;;;;4956930;29;20030;-79
2021/05/25 05:02:52;;;;;;;3.70;2.40;;;14.60;99.90;;;;;;4956823;29;20056;-80
2021/05/25 05:05:18;;;;;;;2.55;2.35;;;14.70;99.90;;;;;;4956577;29;20523;-81
2021/05/25 05:07:44;;;;;;;4.47;2.35;;;14.70;99.90;;;;;;4955458;29;20126;-78
2021/05/25 05:10:11;;;;;;;2.60;2.40;;;14.80;99.90;;;;;;4938837;29;20070;-74
2021/05/25 05:12:37;;;;;;;2.63;2.42;;;14.80;99.90;;;;;;4949573;29;20051;-73
2021/05/25 05:15:04;;;;;;;3.60;2.60;;;14.90;99.90;;;;;;4955345;29;20023;-75
2021/05/25 05:17:30;;;;;;;3.05;2.30;;;14.90;99.90;;;;;;4955946;29;20122;-74
2021/05/25 05:19:56;;;;;;;4.95;2.50;;;14.90;99.90;;;;;;4957352;29;20027;-74
2021/05/25 05:22:22;;;;;;;2.80;2.55;;;14.90;99.90;;;;;;4957183;29;20098;-74
2021/05/25 05:24:49;;;;;;;2.70;2.50;;;14.90;99.90;;;;;;4956651;29;20024;-74
2021/05/25 05:27:15;;;;;;;3.13;2.40;;;15.00;99.90;;;;;;4956701;29;20031;-73
2021/05/25 05:29:40;;;;;;;3.20;2.20;;;15.00;99.90;;;;;;4956848;29;20023;-74
2021/05/25 05:32:06;;;;;;;2.60;2.40;;;15.10;99.90;;;;;;4939170;29;20023;-75
2021/05/25 05:34:33;;;;;;;3.40;2.70;;;15.20;99.90;;;;;;4956410;29;20024;-73
2021/05/25 05:36:59;;;;;;;2.63;2.33;;;15.20;99.90;;;;;;4939124;29;20382;-73
2021/05/25 05:39:25;;;;;;;3.70;2.60;;;15.20;99.90;;;;;;4956408;29;20086;-74
2021/05/25 05:41:51;;;;;;;3.08;2.33;;;15.20;99.90;;;;;;4956531;29;20058;-74
2021/05/25 05:44:16;;;;;;;3.60;2.33;;;15.30;99.90;;;;;;4956605;29;20055;-73
2021/05/25 05:46:42;;;;;;;3.58;2.60;;;15.30;99.90;;;;;;4956465;29;20078;-74
2021/05/25 05:49:08;;;;;;;2.53;2.33;;;15.30;99.90;;;;;;4956608;29;20410;-73
2021/05/25 05:51:34;;;;;;;2.75;2.30;;;15.40;99.90;;;;;;4956126;29;20035;-74
2021/05/25 05:54:00;;;;;;;3.78;2.63;;;15.40;99.90;;;;;;4956381;29;20027;-73
2021/05/25 05:56:26;;;;;;;3.70;2.50;;;15.40;99.90;;;;;;4956256;29;20023;-74
2021/05/25 05:58:52;;;;;;;2.55;2.30;;;15.50;99.90;;;;;;4939191;29;20370;-74
2021/05/25 06:01:18;;;;;;;2.58;2.38;;;15.60;99.90;;;;;;4956494;29;20406;-73
2021/05/25 06:03:44;;;;;;;3.00;2.47;;;15.60;99.90;;;;;;4955500;29;20031;-74
2021/05/25 06:06:11;;;;;;;2.70;2.50;;;15.60;99.90;;;;;;4956626;29;20028;-73
2021/05/25 06:08:37;;;;;;;2.67;2.40;;;15.70;99.90;;;;;;4938887;29;20034;-74
2021/05/25 06:11:03;;;;;;;2.83;2.60;;;15.80;99.90;;;;;;4938640;29;20031;-74
2021/05/25 06:13:29;;;;;;;2.83;2.40;;;15.80;99.90;;;;;;4954495;29;20074;-73
2021/05/25 06:16:01;;;;;;;3.83;2.40;;;15.80;99.90;;;;;;4937125;29;20474;-74
2021/05/25 06:18:31;;;;;;;4.00;2.35;;;15.90;99.90;;;;;;4954142;29;20027;-74
2021/05/25 06:20:57;;;;;;;2.47;2.28;;;15.90;99.90;;;;;;4954432;29;20035;-74
2021/05/25 06:23:23;;;;;;;2.40;2.20;;;15.90;99.90;;;;;;4936985;29;20028;-73
2021/05/25 06:25:49;;;;;;;2.63;2.40;;;16.00;99.90;;;;;;4954151;29;20027;-73
2021/05/25 06:28:15;;;;;;;2.33;2.20;;;16.00;99.90;;;;;;4936882;29;20047;-73
2021/05/25 06:30:42;;;;;;;7.63;2.53;;;16.10;99.90;;;;;;4953896;29;20039;-73
2021/05/25 06:33:07;;;;;;;2.95;2.25;;;16.10;99.70;;;;;;4953484;29;20640;-73
2021/05/25 06:35:34;;;;;;;2.22;2.03;;;16.20;99.90;;;;;;4954258;29;20138;-73
2021/05/25 06:38:00;;;;;;;2.20;1.90;;;16.20;99.90;;;;;;4954202;29;20049;-73
2021/05/25 06:40:27;;;;;;;2.28;2.10;;;16.30;99.90;;;;;;4954142;29;20019;-74
2021/05/25 06:42:52;;;;;;;2.20;2.10;;;16.30;99.90;;;;;;4952865;29;20056;-74
2021/05/25 06:45:18;;;;;;;3.08;2.08;;;16.40;99.60;;;;;;4953956;29;20054;-74
2021/05/25 06:47:45;;;;;;;2.03;1.90;;;16.40;99.90;;;;;;4953919;29;20115;-74
2021/05/25 06:50:10;;;;;;;2.15;2.00;;;16.50;99.90;;;;;;4952805;29;20421;-74
2021/05/25 06:52:36;;;;;;;2.20;2.10;;;16.60;99.90;;;;;;4952508;29;20131;-74
2021/05/25 06:55:04;;;;;;;2.10;2.00;;;16.60;99.30;;;;;;4952583;29;20027;-73
2021/05/25 06:57:30;;;;;;;2.20;2.00;;;16.70;99.60;;;;;;4953792;29;20026;-73
2021/05/25 06:59:56;;;;;;;2.35;2.15;;;16.70;99.50;;;;;;4953881;29;20023;-73
2021/05/25 07:02:23;;;;;;;2.40;2.30;;;16.70;99.50;;;;;;4942629;28;20026;-73
2021/05/25 07:04:51;;;;;;;2.47;2.28;;;16.80;99.80;;;;;;4937185;29;20441;-74
2021/05/25 07:07:16;;;;;;;2.30;1.95;;;16.80;99.50;;;;;;4938459;29;20106;-74
2021/05/25 07:09:42;;;;;;;3.53;2.15;;;16.90;99.70;;;;;;4938538;29;20465;-74
2021/05/25 07:12:09;;;;;;;2.28;2.08;;;17.00;99.50;;;;;;4938614;29;20067;-74
2021/05/25 07:14:35;;;;;;;2.20;2.05;;;17.00;98.80;;;;;;4940303;29;20024;-73
2021/05/25 07:17:00;;;;;;;2.40;2.20;;;17.10;98.90;;;;;;4939016;29;20032;-73
2021/05/25 07:19:26;;;;;;;2.50;1.90;;;17.20;98.80;;;;;;4938605;29;20060;-73
2021/05/25 07:21:51;;;;;;;2.35;1.88;;;17.40;98.10;;;;;;4939890;29;20024;-73
2021/05/25 07:24:17;;;;;;;2.30;2.10;;;17.50;98.50;;;;;;4940159;29;20102;-75
2021/05/25 07:26:43;;;;;;;2.33;2.00;;;17.50;98.00;;;;;;4940191;29;20042;-75
2021/05/25 07:29:08;;;;;;;2.33;2.17;;;17.60;98.10;;;;;;4938892;29;20024;-74
2021/05/25 07:31:34;;;;;;;3.55;2.42;;;17.70;97.70;;;;;;4947734;29;20038;-75
2021/05/25 07:34:00;;;;;;;3.60;2.35;;;17.70;96.90;;;;;;4958630;29;20031;-73
2021/05/25 07:36:25;;;;;;;2.53;2.10;;;17.70;96.50;;;;;;4959016;29;20106;-74
2021/05/25 07:38:51;;;;;;;2.30;2.10;;;17.70;96.90;;;;;;4957666;29;20023;-74
2021/05/25 07:41:17;;;;;;;4.03;2.13;;;17.70;96.90;;;;;;4958948;29;20568;-74
2021/05/25 07:43:44;;;;;;;3.92;2.28;;;17.70;96.60;;;;;;4959095;29;20106;-74
2021/05/25 07:46:10;;;;;;;2.30;2.10;;;17.80;96.20;;;;;;4958433;29;20410;-74
2021/05/25 07:48:36;;;;;;;1.83;1.73;;;17.80;96.10;;;;;;4958632;29;20031;-74
2021/05/25 07:51:02;;;;;;;2.25;2.13;;;17.80;96.20;;;;;;4958319;29;20034;-74
2021/05/25 07:53:27;;;;;;;2.15;1.95;;;17.80;96.10;;;;;;4958665;29;20509;-74
2021/05/25 07:55:53;;;;;;;2.50;2.30;;;17.90;96.00;;;;;;4958718;29;20031;-73
2021/05/25 07:58:19;;;;;;;2.28;2.00;;;17.90;95.80;;;;;;4958795;29;20027;-73
2021/05/25 08:00:45;;;;;;;1.90;1.80;;;18.00;96.10;;;;;;4958284;29;20426;-73
2021/05/25 08:03:12;;;;;;;3.08;2.00;;;18.00;96.20;;;;;;4958448;29;20028;-74
2021/05/25 08:05:38;;;;;;;2.17;1.83;;;18.10;96.60;;;;;;4958094;29;20110;-74
2021/05/25 08:08:04;;;;;;;2.22;2.00;;;18.20;96.80;;;;;;4958334;29;20436;-74
2021/05/25 08:10:30;;;;;;;2.20;2.00;;;18.20;96.70;;;;;;4958311;29;20054;-74
2021/05/25 08:12:56;;;;;;;2.20;2.00;;;18.30;96.50;;;;;;4955862;28;20075;-74
2021/05/25 08:15:24;;;;;;;2.00;1.88;;;18.30;96.50;;;;;;4956345;29;20433;-74
2021/05/25 08:20:35;;;;;;;2.50;2.03;;;18.40;96.70;;;;;;4956352;29;20085;-74
2021/05/25 08:23:01;;;;;;;2.67;2.00;;;18.40;96.80;;;;;;4956238;29;20032;-74
2021/05/25 08:25:30;;;;;;;2.00;1.80;;;18.50;96.60;;;;;;4938962;29;20433;-73
2021/05/25 08:27:58;;;;;;;1.63;1.52;;;18.60;95.90;;;;;;4956430;29;20023;-74
2021/05/25 08:30:26;;;;;;;2.00;1.90;;;18.70;96.10;;;;;;4938687;29;20028;-73
2021/05/25 08:32:53;;;;;;;1.83;1.73;;;18.70;94.70;;;;;;4955249;29;20055;-74
2021/05/25 08:35:20;;;;;;;2.00;1.80;;;18.80;94.60;;;;;;4955696;29;20027;-74
2021/05/25 08:37:49;;;;;;;2.03;1.90;;;18.80;93.90;;;;;;4955984;29;20027;-74
2021/05/25 08:40:17;;;;;;;1.67;1.52;;;18.80;94.30;;;;;;4955906;29;20034;-74
2021/05/25 08:42:43;;;;;;;1.90;1.75;;;18.80;94.40;;;;;;4954434;29;20470;-74
2021/05/25 08:45:10;;;;;;;1.70;1.60;;;18.80;94.80;;;;;;4956103;29;20128;-74
2021/05/25 08:47:36;;;;;;;1.90;1.77;;;18.80;95.10;;;;;;4954515;29;20477;-74
2021/05/25 08:50:09;;;;;;;3.65;1.70;;;18.90;94.90;;;;;;4955847;29;20031;-74
2021/05/25 08:52:35;;;;;;;1.70;1.60;;;18.80;95.00;;;;;;4954436;29;20028;-74
2021/05/25 08:55:03;;;;;;;2.35;1.80;;;18.80;95.20;;;;;;4955501;29;20035;-73
2021/05/25 08:57:29;;;;;;;3.47;1.85;;;18.90;95.20;;;;;;4955597;29;20019;-74
2021/05/25 08:59:54;;;;;;;3.55;1.58;;;18.90;94.60;;;;;;4954368;29;20025;-74
2021/05/25 09:02:20;;;;;;;1.90;1.70;;;19.00;94.90;;;;;;4954771;29;20114;-73
2021/05/25 09:04:58;;;;;;;2.22;2.03;;;19.00;94.50;;;;;;4955336;29;20055;-74
2021/05/25 09:07:44;;;;;;;1.80;1.70;;;19.10;93.40;;;;;;4951007;29;20039;-74
2021/05/25 09:10:14;;;;;;;1.67;1.58;;;19.10;93.70;;;;;;4954596;29;20102;-74
2021/05/25 09:12:41;;;;;;;1.92;1.83;;;19.20;93.90;;;;;;4955871;28;20513;-74
2021/05/25 09:15:08;;;;;;;1.95;1.77;;;19.10;93.60;;;;;;4957211;29;20023;-74
2021/05/25 09:17:35;;;;;;;1.80;1.70;;;19.10;93.30;;;;;;4957369;29;20031;-74
2021/05/25 09:20:01;;;;;;;1.60;1.50;;;19.10;93.20;;;;;;4957361;29;20102;-74
2021/05/25 09:22:29;;;;;;;2.35;1.30;;;19.10;93.60;;;;;;4955462;29;20166;-74
2021/05/25 09:24:57;;;;;;;2.45;1.60;;;19.10;93.30;;;;;;4955555;28;20481;-74
2021/05/25 09:27:38;;;;;;;1.70;1.60;;;19.00;93.30;;;;;;4956977;29;20031;-74
2021/05/25 09:30:18;;;;;;;1.77;1.67;;;19.00;93.00;;;;;;4955956;29;20055;-74
2021/05/25 09:32:55;;;;;;;1.60;1.50;;;19.00;93.30;;;;;;4954793;29;20031;-73
2021/05/25 09:35:23;;;;;;;2.45;1.45;;;19.10;93.10;;;;;;4955627;29;20488;-73
2021/05/25 09:37:54;;;;;;;1.65;1.30;;;19.00;92.30;;;;;;4956705;29;20030;-74
2021/05/25 09:40:25;;;;;;;3.30;1.45;;;19.10;92.20;;;;;;4956489;29;20026;-74
2021/05/25 09:42:55;;;;;;;2.00;1.67;;;19.00;92.40;;;;;;4956984;29;20031;-74
2021/05/25 09:45:21;;;;;;;2.85;1.20;;;19.00;92.60;;;;;;4956385;29;20023;-74
2021/05/25 09:47:53;;;;;;;1.55;1.45;;;19.00;92.40;;;;;;4956500;29;20035;-74
2021/05/25 09:50:24;;;;;;;3.33;1.50;;;19.00;92.60;;;;;;4956760;29;20024;-74
2021/05/25 09:53:00;;;;;;;1.63;1.52;;;19.00;92.60;;;;;;4955343;29;20055;-74
2021/05/25 09:55:27;;;;;;;2.30;1.50;;;18.90;92.10;;;;;;4956471;29;20076;-74
2021/05/25 09:57:57;;;;;;;1.45;1.27;;;18.90;91.80;;;;;;4956209;29;20020;-74
2021/05/25 10:00:24;;;;;;;2.47;1.38;;;18.90;91.90;;;;;;4955074;29;20026;-74
2021/05/25 10:03:09;;;;;;;1.83;1.45;;;19.00;91.70;;;;;;4956014;29;20031;-74
2021/05/25 10:05:36;;;;;;;1.42;1.33;;;19.00;91.80;;;;;;4956092;29;20030;-73
2021/05/25 10:08:03;;;;;;;2.70;1.65;;;19.10;92.20;;;;;;4956085;29;20031;-74
2021/05/25 10:10:29;;;;;;;2.15;1.33;;;19.10;92.20;;;;;;4954628;29;20378;-74
2021/05/25 10:12:56;;;;;;;1.88;1.33;;;19.10;92.10;;;;;;4954736;29;20047;-73
2021/05/25 10:15:24;;;;;;;1.92;1.42;;;19.10;92.10;;;;;;4953073;29;20026;-74
2021/05/25 10:20:22;;;;;;;2.38;1.30;;;19.10;91.70;;;;;;4954111;29;20099;-74
2021/05/25 10:22:47;;;;;;;1.38;1.27;;;19.10;91.80;;;;;;4954045;29;20513;-74
2021/05/25 10:25:17;;;;;;;1.70;1.60;;;19.20;91.70;;;;;;4954092;29;20191;-74
2021/05/25 10:27:45;;;;;;;2.78;1.63;;;19.10;91.60;;;;;;4954160;29;20035;-74
2021/05/25 10:30:26;;;;;;;2.42;1.48;;;19.20;91.50;;;;;;4954121;29;20039;-74
2021/05/25 10:33:12;;;;;;;1.73;1.63;;;19.20;91.40;;;;;;4953487;29;20027;-73
2021/05/25 10:35:53;;;;;;;1.60;1.50;;;19.20;91.10;;;;;;4953854;28;20069;-74
2021/05/25 10:38:25;;;;;;;1.75;1.58;;;19.30;90.00;;;;;;4936888;29;20024;-74
2021/05/25 10:41:03;;;;;;;1.65;1.50;;;19.40;91.00;;;;;;4954052;29;20457;-74
2021/05/25 10:43:34;;;;;;;3.00;1.38;;;19.40;90.70;;;;;;4953934;29;20035;-74
2021/05/25 10:46:22;;;;;;;1.92;1.00;;;19.40;90.70;;;;;;4936681;29;20027;-74
2021/05/25 10:49:35;;;;;;;2.35;1.52;;;19.40;91.00;;;;;;4953672;29;20130;-74
2021/05/25 10:51:45;;;;;;;2.08;1.10;;;19.40;91.00;;;;;;4946051;29;20031;-74
2021/05/25 10:54:29;;;;;;;1.40;1.27;;;19.40;90.80;;;;;;4954072;29;20079;-73
2021/05/25 10:56:55;;;;;;;1.30;1.20;;;19.40;90.90;;;;;;4953773;29;20019;-74
2021/05/25 10:59:21;;;;;;;2.05;1.40;;;19.40;90.80;;;;;;4936592;29;20028;-74
2021/05/25 11:01:57;;;;;;;2.28;1.35;;;19.40;90.60;;;;;;4953382;29;20087;-74
2021/05/25 11:04:24;;;;;;;1.10;1.10;;;19.50;90.70;;;;;;4953657;29;20474;-74
2021/05/25 11:06:51;;;;;;;1.00;1.00;;;19.50;90.90;;;;;;4953716;29;20496;-73
2021/05/25 11:09:28;;;;;;;1.50;1.20;;;19.50;90.40;;;;;;4953837;29;20110;-75
2021/05/25 11:12:13;;;;;;;1.70;1.35;;;19.60;89.70;;;;;;4952428;29;20051;-74
2021/05/25 11:15:13;;;;;;;2.17;1.23;;;19.60;89.40;;;;;;4955851;29;20035;-74
2021/05/25 11:17:39;;;;;;;1.52;1.17;;;19.60;90.00;;;;;;4951145;29;20411;-74
2021/05/25 11:20:54;;;;;;;1.23;0.85;;;19.60;89.80;;;;;;4954263;29;20023;-74
2021/05/25 11:23:44;;;;;;;3.40;1.10;;;19.70;89.40;;;;;;4955086;29;20102;-74
2021/05/25 11:26:30;;;;;;;1.13;1.10;;;19.80;88.80;;;;;;4955608;29;20038;-75
2021/05/25 11:29:16;;;;;;;1.58;1.20;;;19.80;88.50;;;;;;4954939;29;20101;-73
2021/05/25 11:31:41;;;;;;;1.35;0.90;;;19.90;88.00;;;;;;4955222;29;20446;-74
2021/05/25 11:34:07;;;;;;;1.02;1.00;;;19.90;89.40;;;;;;4955207;29;20031;-74
2021/05/25 11:36:35;;;;;;;1.98;1.02;;;19.90;89.10;;;;;;4955450;29;20027;-73
2021/05/25 11:39:05;;;;;;;0.85;0.80;;;19.90;87.20;;;;;;4955585;29;20019;-74
2021/05/25 11:41:31;;;;;;;1.27;0.98;;;20.00;87.80;;;;;;4955668;29;20058;-74
2021/05/25 11:44:05;;;;;;;1.77;0.82;;;20.00;88.10;;;;;;4937861;29;20059;-74
2021/05/25 11:46:47;;;;;;;1.23;1.00;;;20.10;88.70;;;;;;4955181;29;20023;-74
2021/05/25 11:49:14;;;;;;;1.83;1.10;;;20.10;88.70;;;;;;4957381;28;20411;-74
2021/05/25 11:51:42;;;;;;;1.08;0.98;;;20.20;89.60;;;;;;4958672;29;20429;-75
2021/05/25 11:54:15;;;;;;;2.95;1.27;;;20.20;90.40;;;;;;4941615;29;20082;-75
2021/05/25 11:56:47;;;;;;;2.67;1.17;;;20.70;91.10;;;;;;4941237;29;20023;-75
2021/05/25 11:59:19;;;;;;;2.53;1.17;;;21.60;91.60;;;;;;4957835;29;20023;-75
2021/05/25 12:01:53;;;;;;;1.17;1.00;;;23.10;90.50;;;;;;4957332;29;20347;-75
2021/05/25 12:04:20;;;;;;;0.90;0.90;;;24.80;87.20;;;;;;4957052;29;20496;-74
2021/05/25 12:06:58;;;;;;;2.72;1.25;;;26.20;81.20;;;;;;4954182;29;20447;-75
2021/05/25 12:09:29;;;;;;;0.60;0.60;;;27.60;78.20;;;;;;4951039;29;20027;-74
2021/05/25 12:12:07;;;;;;;1.05;0.90;;;28.80;69.90;;;;;;4957975;29;20051;-74
2021/05/25 12:14:33;;;;;;;2.72;1.02;;;29.70;66.70;;;;;;4956201;29;20061;-75
2021/05/25 12:17:05;;;;;;;0.85;0.85;;;30.50;65.50;;;;;;4956330;29;20055;-75
2021/05/25 12:19:31;;;;;;;1.05;0.90;;;31.20;57.00;;;;;;4956635;29;20023;-75
2021/05/25 12:22:05;;;;;;;1.45;0.70;;;31.80;56.90;;;;;;4956518;29;20027;-75
2021/05/25 12:24:34;;;;;;;0.80;0.60;;;32.30;51.90;;;;;;4955050;29;20031;-75
2021/05/25 12:27:00;;;;;;;;;;;32.50;52.30;;;;;;4956566;29;20027;-75
2021/05/25 12:29:26;;;;;;;2.20;0.77;;;32.60;56.30;;;;;;4955833;29;20257;-76
2021/05/25 12:31:54;;;;;;;1.40;0.88;;;32.90;55.20;;;;;;4938985;29;20464;-76
2021/05/25 12:34:21;;;;;;;2.13;0.98;;;33.10;55.10;;;;;;4938970;29;20031;-76
2021/05/25 12:37:00;;;;;;;1.17;0.60;;;33.60;54.60;;;;;;4956277;29;20030;-76
2021/05/25 12:39:41;;;;;;;1.73;0.80;;;34.00;48.70;;;;;;4956304;29;20462;-76
2021/05/25 12:42:18;;;;;;;0.90;0.88;;;34.10;49.60;;;;;;4956361;29;20030;-77
2021/05/25 12:44:44;;;;;;;1.63;0.52;;;34.30;50.30;;;;;;4939158;29;20035;-76
2021/05/25 12:47:14;;;;;;;0.70;0.70;;;34.30;50.20;;;;;;4956221;29;20027;-76
2021/05/25 12:49:46;;;;;;;1.83;0.77;;;34.30;48.80;;;;;;4939108;29;20481;-76
2021/05/25 12:52:27;;;;;;;1.10;1.00;;;34.10;48.60;;;;;;4955912;29;20038;-75
2021/05/25 12:55:08;;;;;;;1.67;0.90;;;34.00;48.50;;;;;;4955765;29;20072;-74
2021/05/25 12:57:52;;;;;;;0.82;0.80;;;34.10;50.00;;;;;;4955633;29;20489;-75
2021/05/25 13:00:46;;;;;;;1.33;0.70;;;34.10;48.30;;;;;;4954821;28;20054;-75